X  Close Metar Aviation Weather Data     CYYC Calgary International Airport
Temperature
-11°C Temperature
-15°C Dewpoint
73% Humidity



Wind
47 KM/H
29 MPH
13 M/S
25 KTS



360°
N
Current Conditions

Light Snow, Blowing Snow Light Snow, Blowing Snow
Pressure 1009.52 (hPa) - 29.81 (inHg)
Visibility 1 (mile) - 1.6 (km)
Airport
Airport-code CYYC

Location: Calgary International Airport
Distance: 4 (km)

Metar:
CYYC 180603Z 36025G39KT 1SM -SN BLSN OVC014 M11/M15 A2981 RMK SC8 VIS VRB 3/4 - 11/4 SLP144

Time: 17-01-2022 23:03 MST